Time;durP1;ratioP1;P1;durP2;ratioP2;P2;SDS_P1;SDS_P2;PMS_P1;PMS_P2;Temp;Humidity;BMP_temperature;BMP_pressure;BME280_temperature;BME280_humidity;BME280_pressure;Samples;Min_cycle;Max_cycle;Signal;HPM_P1;HPM_P2
2022/02/19 09:20:02;;;;;;;94.35;49.10;;;;;;;;;;6124320;23;21028;31
2022/02/19 09:22:28;;;;;;;94.75;51.30;;;;;;;;;;6127916;23;20061;-87
2022/02/19 09:24:53;;;;;;;90.30;49.40;;;;;;;;;;6128279;23;20306;-87
2022/02/19 09:27:19;;;;;;;94.68;51.15;;;;;;;;;;6128131;23;20060;-86
2022/02/19 10:47:54;;;;;;;78.03;44.70;;;;;;;;;;6199930;23;20095;-85
2022/02/19 10:50:21;;;;;;;78.85;46.67;;;;;;;;;;6184836;23;20408;-87
2022/02/19 10:52:56;;;;;;;79.40;46.13;;;;;;;;;;6185194;23;20013;-85
2022/02/19 10:55:28;;;;;;;81.15;46.40;;;;;;;;;;6186936;23;20025;-88
2022/02/19 10:57:59;;;;;;;81.22;46.40;;;;;;;;;;6185029;23;20028;-88
2022/02/19 11:00:25;;;;;;;84.88;46.67;;;;;;;;;;6186523;23;20016;-83
2022/02/19 11:02:51;;;;;;;76.25;45.90;;;;;;;;;;6186620;23;20324;-84
2022/02/19 11:05:17;;;;;;;79.47;45.45;;;;;;;;;;6186385;23;20009;-88
2022/02/19 11:07:45;;;;;;;80.15;46.65;;;;;;;;;;6185013;23;20075;-87
2022/02/19 11:10:13;;;;;;;82.90;45.95;;;;;;;;;;6186575;23;20007;-89
2022/02/19 11:12:38;;;;;;;79.15;45.15;;;;;;;;;;6186522;23;20009;-88
2022/02/19 11:15:06;;;;;;;83.57;47.58;;;;;;;;;;6186400;23;20333;-87
2022/02/19 11:17:35;;;;;;;78.10;45.35;;;;;;;;;;6185040;23;20103;-84
2022/02/19 11:20:04;;;;;;;81.50;46.38;;;;;;;;;;6185311;23;20013;-87
2022/02/19 11:22:31;;;;;;;78.10;46.53;;;;;;;;;;6186984;23;20011;-87
2022/02/19 11:25:02;;;;;;;87.82;47.25;;;;;;;;;;6185027;23;20038;-87
2022/02/19 11:27:32;;;;;;;80.93;46.85;;;;;;;;;;6185286;23;20036;-85
2022/02/19 11:30:03;;;;;;;86.88;48.13;;;;;;;;;;6185332;23;20008;-87
2022/02/19 11:32:31;;;;;;;84.45;47.08;;;;;;;;;;6186648;23;20329;-87
2022/02/19 11:34:57;;;;;;;83.70;46.45;;;;;;;;;;6186800;23;20528;-84
2022/02/19 11:37:24;;;;;;;82.57;47.92;;;;;;;;;;6187022;23;19997;-84
2022/02/19 11:40:10;;;;;;;83.47;47.40;;;;;;;;;;6186776;23;20014;-84
2022/02/19 11:42:42;;;;;;;82.50;47.00;;;;;;;;;;6186677;23;20088;-86
2022/02/19 11:45:28;;;;;;;94.97;52.35;;;;;;;;;;6186674;23;20012;-88
2022/02/19 11:48:14;;;;;;;91.07;50.88;;;;;;;;;;6185989;23;20017;-86
2022/02/19 11:50:42;;;;;;;87.63;50.47;;;;;;;;;;6163890;23;20005;-85
2022/02/19 11:53:13;;;;;;;93.10;51.13;;;;;;;;;;6186549;23;20001;-88
2022/02/19 11:55:40;;;;;;;85.07;49.42;;;;;;;;;;6186267;23;20425;-84
2022/02/19 11:58:26;;;;;;;96.22;52.85;;;;;;;;;;6186201;23;20360;-87
2022/02/19 12:01:01;;;;;;;86.75;49.67;;;;;;;;;;6185905;23;20036;-86
2022/02/19 12:03:30;;;;;;;87.32;49.65;;;;;;;;;;6186169;23;20005;-84
2022/02/19 12:06:11;;;;;;;85.13;48.40;;;;;;;;;;6184390;23;20005;-84
2022/02/19 12:08:48;;;;;;;85.03;49.75;;;;;;;;;;6186071;23;20013;-85
2022/02/19 12:11:21;;;;;;;90.55;50.53;;;;;;;;;;6186067;23;20006;-87
2022/02/19 12:13:57;;;;;;;83.57;49.83;;;;;;;;;;6186142;23;20005;-88
2022/02/19 12:16:34;;;;;;;85.38;49.88;;;;;;;;;;6184584;23;20081;-86
2022/02/19 12:19:05;;;;;;;86.13;49.92;;;;;;;;;;6184293;23;20068;-83
2022/02/19 12:21:34;;;;;;;84.63;49.90;;;;;;;;;;6186333;23;20001;-83
2022/02/19 12:24:18;;;;;;;85.63;48.05;;;;;;;;;;6186445;23;20001;-87
2022/02/19 12:26:56;;;;;;;79.85;46.15;;;;;;;;;;6188155;23;20008;-83
2022/02/19 12:29:25;;;;;;;83.75;46.53;;;;;;;;;;6187983;23;20005;-83
2022/02/19 12:31:59;;;;;;;82.43;47.58;;;;;;;;;;6188178;23;20042;-85
2022/02/19 12:34:26;;;;;;;83.78;44.88;;;;;;;;;;6188173;23;20321;-87
2022/02/19 12:36:55;;;;;;;78.95;45.05;;;;;;;;;;6188111;23;20011;-83
2022/02/19 12:39:25;;;;;;;73.57;41.75;;;;;;;;;;6188036;23;20012;-83
2022/02/19 12:41:55;;;;;;;68.40;40.78;;;;;;;;;;6187940;23;20009;-83
2022/02/19 12:44:20;;;;;;;;;;;;;;;;;;6186914;23;20012;-86
2022/02/19 12:46:47;;;;;;;66.25;36.38;;;;;;;;;;6188060;23;20073;-84
2022/02/19 12:49:16;;;;;;;74.57;40.50;;;;;;;;;;6186303;23;20151;-86
2022/02/19 12:51:43;;;;;;;62.60;37.58;;;;;;;;;;6188404;23;20306;-87
2022/02/19 12:54:09;;;;;;;65.22;37.00;;;;;;;;;;6186095;23;20004;-87
2022/02/19 12:56:44;;;;;;;62.40;35.85;;;;;;;;;;6186491;23;20380;-85
2022/02/19 12:59:09;;;;;;;63.88;35.20;;;;;;;;;;6187829;23;20009;-87
2022/02/19 13:01:35;;;;;;;65.88;37.28;;;;;;;;;;6188122;23;20005;-87
2022/02/19 13:04:01;;;;;;;66.30;36.28;;;;;;;;;;6187773;23;20028;-83
2022/02/19 13:06:28;;;;;;;66.75;38.47;;;;;;;;;;6187881;23;20044;-83
2022/02/19 13:09:08;;;;;;;67.05;39.03;;;;;;;;;;6186068;23;20029;-87
2022/02/19 13:11:35;;;;;;;71.72;41.38;;;;;;;;;;6187590;23;19998;-86
2022/02/19 13:14:04;;;;;;;74.45;39.85;;;;;;;;;;6188043;23;20029;-83
2022/02/19 13:16:30;;;;;;;65.95;36.55;;;;;;;;;;6187599;23;20007;-84
2022/02/19 13:18:55;;;;;;;64.50;36.70;;;;;;;;;;6185608;23;20087;-87
2022/02/19 13:21:21;;;;;;;61.58;36.15;;;;;;;;;;6187545;23;20088;-86
2022/02/19 13:23:48;;;;;;;67.45;37.30;;;;;;;;;;6185928;23;20016;-84
2022/02/19 13:26:34;;;;;;;62.97;37.30;;;;;;;;;;6187633;23;20051;-87
2022/02/19 13:29:00;;;;;;;65.97;37.50;;;;;;;;;;6187832;23;20001;-84
2022/02/19 13:31:27;;;;;;;74.45;43.00;;;;;;;;;;6187451;23;20324;-83
2022/02/19 13:33:53;;;;;;;71.57;44.70;;;;;;;;;;6187413;23;20417;-86
2022/02/19 13:36:20;;;;;;;71.03;40.13;;;;;;;;;;6187517;23;20076;-86
2022/02/19 13:38:46;;;;;;;72.55;40.90;;;;;;;;;;6187768;23;20007;-87
2022/02/19 13:41:12;;;;;;;71.82;39.67;;;;;;;;;;6187537;23;20451;-84
2022/02/19 13:43:38;;;;;;;70.50;42.35;;;;;;;;;;6187657;23;19997;-86
2022/02/19 13:46:16;;;;;;;70.45;40.42;;;;;;;;;;6187886;23;20013;-84
2022/02/19 13:48:45;;;;;;;77.50;43.75;;;;;;;;;;6187044;23;20093;-87
2022/02/19 13:51:12;;;;;;;77.28;44.30;;;;;;;;;;6187380;23;20089;-87
2022/02/19 13:53:39;;;;;;;77.40;45.05;;;;;;;;;;6187332;23;20005;-87
2022/02/19 13:56:06;;;;;;;76.38;44.33;;;;;;;;;;6187277;23;20376;-87
2022/02/19 13:58:37;;;;;;;81.00;46.97;;;;;;;;;;6187257;23;20001;-84
2022/02/19 14:01:16;;;;;;;81.75;47.28;;;;;;;;;;6187166;23;20005;-86
2022/02/19 14:04:06;;;;;;;79.43;47.00;;;;;;;;;;6185709;23;20001;-86
2022/02/19 14:06:37;;;;;;;79.13;46.35;;;;;;;;;;6187173;23;20001;-86
2022/02/19 14:09:15;;;;;;;77.88;45.13;;;;;;;;;;6187279;23;20108;-86
2022/02/19 14:11:57;;;;;;;77.82;45.88;;;;;;;;;;6187184;23;20328;-86
2022/02/19 14:14:28;;;;;;;74.10;43.92;;;;;;;;;;6184269;23;20080;-86
2022/02/19 14:17:11;;;;;;;78.05;45.60;;;;;;;;;;6186594;23;20008;-86
2022/02/19 14:19:37;;;;;;;83.00;45.72;;;;;;;;;;6187062;23;20071;-87
2022/02/19 14:22:03;;;;;;;80.65;46.90;;;;;;;;;;6185461;23;20012;-87
2022/02/19 14:24:29;;;;;;;79.38;46.53;;;;;;;;;;6187141;23;20024;-87
2022/02/19 14:27:27;;;;;;;84.75;48.75;;;;;;;;;;6185547;23;20336;-85
2022/02/19 14:29:52;;;;;;;87.20;49.33;;;;;;;;;;6137518;23;20083;-87
2022/02/19 14:32:18;;;;;;;83.70;49.40;;;;;;;;;;6186837;23;20443;-87
2022/02/19 14:34:44;;;;;;;92.55;53.97;;;;;;;;;;6186366;23;20005;-84
2022/02/19 14:37:10;;;;;;;91.40;51.65;;;;;;;;;;6186999;23;20439;-87
2022/02/19 14:39:35;;;;;;;94.30;50.72;;;;;;;;;;6185170;23;20068;-87
2022/02/19 14:42:01;;;;;;;105.30;58.67;;;;;;;;;;6186600;23;20009;-87
2022/02/19 14:44:28;;;;;;;111.45;60.28;;;;;;;;;;6186876;23;20008;-86
2022/02/19 14:46:55;;;;;;;108.28;60.75;;;;;;;;;;6186377;23;20001;-88
2022/02/19 14:49:21;;;;;;;125.53;66.68;;;;;;;;;;6186758;23;20013;-87
2022/02/19 14:51:47;;;;;;;115.07;64.68;;;;;;;;;;6187218;23;20408;-83
2022/02/19 14:54:12;;;;;;;117.85;63.17;;;;;;;;;;6210675;23;19997;-88
2022/02/19 14:56:39;;;;;;;107.05;59.15;;;;;;;;;;6186855;23;20047;-84
2022/02/19 14:59:06;;;;;;;108.40;59.50;;;;;;;;;;6186595;23;20009;-87
2022/02/19 15:01:31;;;;;;;108.25;59.78;;;;;;;;;;6186462;23;20004;-88
2022/02/19 15:03:57;;;;;;;101.45;57.47;;;;;;;;;;6187190;23;20005;-84
2022/02/19 15:06:23;;;;;;;107.13;58.08;;;;;;;;;;6186914;23;20324;-88
2022/02/19 15:08:50;;;;;;;110.43;60.80;;;;;;;;;;6186759;23;20005;-87
2022/02/19 15:11:15;;;;;;;102.32;55.90;;;;;;;;;;6186490;23;20008;-84
2022/02/19 15:13:41;;;;;;;104.97;57.75;;;;;;;;;;6185027;23;20332;-88
2022/02/19 15:16:10;;;;;;;106.30;59.40;;;;;;;;;;6186580;23;20001;-88
2022/02/19 15:18:36;;;;;;;105.97;57.10;;;;;;;;;;6185320;23;20143;-84
2022/02/19 15:21:02;;;;;;;97.18;55.30;;;;;;;;;;6186575;23;20008;-84
2022/02/19 15:23:27;;;;;;;105.07;56.22;;;;;;;;;;6187081;23;20001;-86
2022/02/19 15:25:53;;;;;;;111.20;60.55;;;;;;;;;;6186709;23;20009;-88
2022/02/19 15:28:19;;;;;;;107.63;59.90;;;;;;;;;;6186510;23;20479;-87
2022/02/19 15:30:45;;;;;;;108.03;58.85;;;;;;;;;;6186497;23;20001;-88
2022/02/19 15:33:10;;;;;;;103.53;59.08;;;;;;;;;;6185121;23;20032;-85
2022/02/19 15:35:36;;;;;;;106.97;57.95;;;;;;;;;;6184766;23;20001;-86
2022/02/19 15:38:01;;;;;;;99.18;55.95;;;;;;;;;;6185267;23;20005;-86
2022/02/19 15:40:26;;;;;;;98.07;55.97;;;;;;;;;;6186553;23;20013;-87
2022/02/19 15:42:52;;;;;;;100.05;55.30;;;;;;;;;;6186340;23;20425;-85
2022/02/19 15:45:17;;;;;;;104.38;57.40;;;;;;;;;;6186062;23;20084;-83
2022/02/19 15:47:43;;;;;;;109.13;59.10;;;;;;;;;;6186344;23;20008;-85
2022/02/19 15:50:09;;;;;;;108.35;61.22;;;;;;;;;;6186454;23;20009;-87
2022/02/19 15:52:35;;;;;;;112.22;61.53;;;;;;;;;;6186324;23;20076;-84
2022/02/19 15:55:00;;;;;;;115.68;64.78;;;;;;;;;;6184545;23;20012;-88
2022/02/19 18:42:07;;;;;;;86.22;47.53;;;;;;;;;;6183974;23;20044;-90
2022/02/19 18:44:32;;;;;;;88.60;47.83;;;;;;;;;;6191762;23;20013;-91
2022/02/19 18:46:58;;;;;;;88.55;47.42;;;;;;;;;;6199797;23;20055;-90
2022/02/19 18:49:23;;;;;;;83.43;45.42;;;;;;;;;;6196424;23;20440;-90
2022/02/19 18:51:49;;;;;;;85.05;45.75;;;;;;;;;;6173700;23;20002;-89
2022/02/19 18:54:14;;;;;;;100.78;53.70;;;;;;;;;;6182777;23;20041;-89
2022/02/19 18:56:40;;;;;;;96.68;53.70;;;;;;;;;;6181051;23;19990;-90
2022/02/19 18:59:06;;;;;;;95.72;47.33;;;;;;;;;;6177958;23;20012;-91
2022/02/19 19:01:33;;;;;;;93.43;51.00;;;;;;;;;;6159532;23;20382;-90
2022/02/19 19:03:58;;;;;;;85.60;46.80;;;;;;;;;;6158699;23;20010;-90
2022/02/19 19:06:24;;;;;;;88.65;50.08;;;;;;;;;;6160237;23;20540;-91
2022/02/19 19:08:50;;;;;;;99.10;53.42;;;;;;;;;;6158577;23;20009;-91
2022/02/19 19:11:15;;;;;;;79.05;43.83;;;;;;;;;;6160146;23;20005;-92
2022/02/19 19:13:42;;;;;;;82.20;45.13;;;;;;;;;;6156610;23;20008;-91
2022/02/19 19:16:07;;;;;;;89.40;48.58;;;;;;;;;;6156382;23;20009;-89
2022/02/19 19:18:34;;;;;;;83.80;44.17;;;;;;;;;;6157193;23;20371;-89
2022/02/19 19:21:00;;;;;;;81.85;43.58;;;;;;;;;;6155622;23;20096;-87
2022/02/19 19:23:25;;;;;;;85.97;46.70;;;;;;;;;;6157235;23;20033;-89
2022/02/19 19:25:51;;;;;;;80.00;43.90;;;;;;;;;;6156940;23;20100;-89
2022/02/19 19:28:16;;;;;;;82.65;45.28;;;;;;;;;;6155405;23;20037;-89
2022/02/19 19:30:42;;;;;;;77.75;41.28;;;;;;;;;;6157322;23;20092;-90
2022/02/19 19:33:08;;;;;;;75.22;41.75;;;;;;;;;;6155613;23;20032;-88
2022/02/19 19:35:35;;;;;;;85.70;48.45;;;;;;;;;;6157280;23;20425;-88
2022/02/19 19:38:00;;;;;;;85.30;44.88;;;;;;;;;;6155621;23;20005;-87
2022/02/19 19:40:26;;;;;;;77.55;42.78;;;;;;;;;;6156915;23;20425;-93
2022/02/19 19:42:52;;;;;;;75.68;44.22;;;;;;;;;;6155508;23;20021;-89
2022/02/19 19:45:17;;;;;;;82.82;44.65;;;;;;;;;;6155773;23;20088;-90
2022/02/19 19:47:44;;;;;;;79.10;42.85;;;;;;;;;;6157393;23;20013;-93
2022/02/19 19:50:10;;;;;;;73.43;41.53;;;;;;;;;;6157086;23;20005;-92
2022/02/19 19:52:35;;;;;;;85.53;47.60;;;;;;;;;;6157331;23;20045;-92
2022/02/19 19:55:04;;;;;;;84.10;46.60;;;;;;;;;;6157092;23;20002;-93
2022/02/19 19:57:30;;;;;;;80.60;44.08;;;;;;;;;;6156620;23;20076;-94
2022/02/19 19:59:56;;;;;;;80.82;43.38;;;;;;;;;;6156742;23;20040;-96
2022/02/19 20:02:21;;;;;;;78.18;43.10;;;;;;;;;;6156390;23;20010;-94
2022/02/19 20:04:47;;;;;;;79.15;43.35;;;;;;;;;;6155967;23;20444;-95
2022/02/19 20:07:13;;;;;;;80.88;43.95;;;;;;;;;;6156624;23;20083;-94
2022/02/19 20:09:39;;;;;;;83.30;45.10;;;;;;;;;;6156222;23;20008;-93
2022/02/19 20:12:06;;;;;;;74.20;45.65;;;;;;;;;;6156528;23;20017;-93
2022/02/19 20:14:35;;;;;;;84.30;47.30;;;;;;;;;;6156367;23;20037;-95
2022/02/19 20:17:01;;;;;;;81.25;45.63;;;;;;;;;;6157374;23;20052;-94
2022/02/19 20:19:26;;;;;;;79.05;43.95;;;;;;;;;;6156471;23;20009;-93
2022/02/19 20:21:55;;;;;;;80.32;44.15;;;;;;;;;;6156466;23;20013;-94
2022/02/19 20:24:20;;;;;;;86.10;49.38;;;;;;;;;;6156658;23;20005;-88
2022/02/19 20:26:46;;;;;;;86.93;45.95;;;;;;;;;;6156548;23;20046;-88
2022/02/19 20:29:12;;;;;;;80.25;44.30;;;;;;;;;;6158193;23;20089;-89
2022/02/19 20:31:37;;;;;;;77.50;44.45;;;;;;;;;;6157286;23;20041;-89
2022/02/19 20:34:03;;;;;;;78.72;43.40;;;;;;;;;;6157587;23;20447;-91
2022/02/19 20:36:28;;;;;;;84.03;46.38;;;;;;;;;;6156570;23;20005;-89
2022/02/19 20:38:54;;;;;;;86.28;46.72;;;;;;;;;;6154851;23;20012;-89
2022/02/19 20:41:21;;;;;;;79.38;43.83;;;;;;;;;;6156279;23;19998;-88
2022/02/19 20:43:47;;;;;;;82.18;43.72;;;;;;;;;;6155554;23;20088;-94
2022/02/19 20:46:12;;;;;;;77.93;44.60;;;;;;;;;;6156387;23;20037;-87
2022/02/19 20:48:37;;;;;;;76.25;44.47;;;;;;;;;;6156760;23;20005;-89
2022/02/19 20:51:03;;;;;;;79.95;43.95;;;;;;;;;;6157353;23;20413;-93
2022/02/19 20:53:30;;;;;;;84.95;45.75;;;;;;;;;;6160736;23;20002;-96
2022/02/19 20:55:55;;;;;;;87.75;46.08;;;;;;;;;;6157249;23;20005;-89
2022/02/19 20:58:21;;;;;;;88.03;47.33;;;;;;;;;;6158456;23;20122;-90
2022/02/19 21:00:49;;;;;;;85.35;46.78;;;;;;;;;;6157428;23;20006;-91
2022/02/19 21:03:14;;;;;;;82.80;46.78;;;;;;;;;;6157428;23;20037;-89
2022/02/19 21:05:40;;;;;;;82.18;45.58;;;;;;;;;;6158098;23;20001;-88
2022/02/19 21:08:05;;;;;;;84.38;46.10;;;;;;;;;;6156180;23;20010;-88
2022/02/19 21:10:31;;;;;;;96.43;49.17;;;;;;;;;;6158028;23;20029;-90
2022/02/19 21:12:57;;;;;;;84.68;46.92;;;;;;;;;;6156309;23;20006;-88
2022/02/19 21:15:23;;;;;;;83.53;45.28;;;;;;;;;;6156095;23;20021;-88
2022/02/19 21:17:48;;;;;;;78.50;45.58;;;;;;;;;;6156306;23;20017;-88
2022/02/19 21:20:14;;;;;;;126.80;63.13;;;;;;;;;;6157699;23;20009;-90
2022/02/19 21:22:39;;;;;;;102.05;52.80;;;;;;;;;;6156189;23;20417;-88
2022/02/19 21:25:06;;;;;;;84.15;45.03;;;;;;;;;;6157795;23;20009;-88
2022/02/19 21:27:31;;;;;;;86.50;45.90;;;;;;;;;;6155933;23;20072;-88
2022/02/19 21:29:57;;;;;;;83.65;45.63;;;;;;;;;;6156217;23;20085;-86
2022/02/19 21:32:22;;;;;;;83.10;45.47;;;;;;;;;;6156429;23;20072;-88
2022/02/19 21:34:48;;;;;;;81.13;46.03;;;;;;;;;;6157597;23;20060;-87
2022/02/19 21:37:14;;;;;;;77.63;42.78;;;;;;;;;;6157867;23;20002;-87
2022/02/19 21:39:39;;;;;;;79.70;43.10;;;;;;;;;;6156049;23;20041;-91
2022/02/19 21:42:09;;;;;;;85.55;45.05;;;;;;;;;;6156378;23;20346;-90
2022/02/19 21:44:44;;;;;;;81.25;44.53;;;;;;;;;;6156859;23;20314;-89
2022/02/19 21:47:11;;;;;;;80.20;42.28;;;;;;;;;;6156736;23;20422;-93
2022/02/19 21:49:39;;;;;;;81.75;44.03;;;;;;;;;;6156108;23;20006;-89
2022/02/19 21:52:05;;;;;;;84.93;44.45;;;;;;;;;;6158201;23;20005;-93
2022/02/19 21:54:31;;;;;;;79.43;44.03;;;;;;;;;;6158054;23;20052;-89
2022/02/19 21:56:56;;;;;;;79.40;45.25;;;;;;;;;;6158034;23;20005;-93
2022/02/19 21:59:22;;;;;;;86.03;46.90;;;;;;;;;;6158109;23;20012;-89
2022/02/19 22:01:48;;;;;;;100.82;52.83;;;;;;;;;;6157595;23;19998;-89
2022/02/19 22:04:14;;;;;;;98.93;53.30;;;;;;;;;;6157898;23;20008;-93
2022/02/19 22:06:40;;;;;;;101.40;54.42;;;;;;;;;;6157718;23;20081;-89
2022/02/19 22:09:05;;;;;;;95.47;51.67;;;;;;;;;;6156623;23;20035;-90
2022/02/19 22:11:32;;;;;;;90.22;51.10;;;;;;;;;;6156350;23;20052;-89
2022/02/19 22:13:58;;;;;;;90.85;48.95;;;;;;;;;;6157700;23;20333;-90
2022/02/19 22:16:23;;;;;;;91.70;49.42;;;;;;;;;;6156189;23;20016;-90
2022/02/19 22:18:49;;;;;;;93.57;51.75;;;;;;;;;;6155947;23;20009;-89
2022/02/19 22:21:14;;;;;;;98.22;53.78;;;;;;;;;;6157636;23;20089;-93
2022/02/19 22:23:40;;;;;;;96.38;53.40;;;;;;;;;;6156061;23;20005;-90
2022/02/19 22:26:06;;;;;;;99.60;53.47;;;;;;;;;;6157517;23;20053;-89
2022/02/19 22:28:34;;;;;;;96.05;51.63;;;;;;;;;;6156072;23;20012;-89
2022/02/19 22:31:01;;;;;;;92.45;48.53;;;;;;;;;;6156075;23;20326;-89
2022/02/19 22:33:26;;;;;;;92.60;50.40;;;;;;;;;;6157441;23;20001;-92
2022/02/19 22:35:52;;;;;;;103.03;54.13;;;;;;;;;;6156041;23;20076;-92
2022/02/19 22:38:17;;;;;;;94.72;51.22;;;;;;;;;;6156059;23;20097;-89
2022/02/19 22:40:43;;;;;;;89.80;49.15;;;;;;;;;;6155603;23;20009;-91
2022/02/19 22:43:08;;;;;;;94.30;50.60;;;;;;;;;;6157192;23;20016;-90
2022/02/19 22:45:34;;;;;;;96.22;51.03;;;;;;;;;;6157218;23;20456;-90
2022/02/19 22:47:59;;;;;;;101.65;54.75;;;;;;;;;;6157219;23;20012;-92
2022/02/19 22:50:25;;;;;;;97.90;54.25;;;;;;;;;;6157270;23;20001;-90
2022/02/19 22:52:50;;;;;;;99.88;53.80;;;;;;;;;;6155879;23;20056;-91
2022/02/19 22:55:16;;;;;;;106.07;54.05;;;;;;;;;;6156023;23;20325;-89
2022/02/19 22:57:42;;;;;;;106.07;57.15;;;;;;;;;;6157593;23;20001;-91
2022/02/19 23:00:28;;;;;;;108.47;56.65;;;;;;;;;;6155735;23;20040;-89
2022/02/19 23:02:53;;;;;;;101.18;55.88;;;;;;;;;;6082601;23;20450;-90
2022/02/19 23:05:37;;;;;;;103.95;58.03;;;;;;;;;;6155907;23;20088;-90
2022/02/19 23:08:07;;;;;;;105.10;56.53;;;;;;;;;;6155512;23;20341;-89
2022/02/19 23:10:33;;;;;;;;;;;;;;;;;;6156200;23;20041;-93
